createdAt,value
2019-04-23T00:01:41.870Z,14.63
2019-04-23T00:04:10.100Z,14.57
2019-04-23T00:07:10.713Z,14.30
2019-04-23T00:12:05.718Z,15.67
2019-04-23T00:14:39.553Z,15.10
2019-04-23T00:17:12.066Z,14.13
2019-04-23T00:19:43.407Z,14.20
2019-04-23T00:22:37.044Z,13.83
2019-04-23T00:28:10.346Z,13.13
2019-04-23T00:30:45.359Z,13.77
2019-04-23T00:33:15.664Z,13.63
2019-04-23T00:35:44.090Z,14.37
2019-04-23T00:40:53.938Z,13.70
2019-04-23T00:43:26.986Z,14.00
2019-04-23T00:45:59.406Z,13.03
2019-04-23T00:51:03.455Z,13.20
2019-04-23T00:53:48.083Z,12.50
2019-04-23T00:58:58.072Z,11.90
2019-04-23T01:01:36.876Z,13.90
2019-04-23T01:04:20.455Z,14.07
2019-04-23T01:06:39.123Z,13.30
2019-04-23T01:09:11.762Z,13.57
2019-04-23T01:11:46.601Z,12.47
2019-04-23T01:14:21.537Z,12.67
2019-04-23T01:16:49.414Z,12.20
2019-04-23T01:19:37.129Z,12.80
2019-04-23T01:22:06.800Z,13.57
2019-04-23T01:25:04.622Z,12.23
2019-04-23T01:30:38.772Z,11.70
2019-04-23T01:33:16.063Z,14.63
2019-04-23T01:35:50.986Z,13.83
2019-04-23T01:38:18.465Z,10.80
2019-04-23T01:40:47.538Z,11.33
2019-04-23T01:43:30.234Z,11.50
2019-04-23T01:46:02.443Z,12.13
2019-04-23T01:48:42.434Z,11.73
2019-04-23T01:51:01.795Z,11.97
2019-04-23T01:53:45.569Z,10.90
2019-04-23T01:56:19.686Z,11.90
2019-04-23T02:01:47.551Z,10.50
2019-04-23T02:04:04.430Z,11.63
2019-04-23T02:06:39.104Z,10.73
2019-04-23T02:09:12.653Z,12.47
2019-04-23T02:11:43.829Z,10.67
2019-04-23T02:14:24.443Z,11.77
2019-04-23T02:16:55.153Z,10.40
2019-04-23T02:19:32.134Z,12.23
2019-04-23T02:22:03.973Z,11.43
2019-04-23T02:24:41.292Z,10.37
2019-04-23T02:27:22.385Z,11.37
2019-04-23T02:32:29.663Z,10.77
2019-04-23T02:35:11.717Z,10.53
2019-04-23T02:37:53.825Z,10.47
2019-04-23T02:45:36.108Z,10.10
2019-04-23T02:48:01.498Z,10.20
2019-04-23T02:53:14.423Z,10.67
2019-04-23T02:55:59.559Z,10.03
2019-04-23T03:01:11.358Z,11.13
2019-04-23T03:11:25.664Z,12.00
2019-04-23T03:19:02.516Z,9.60
2019-04-23T03:29:49.074Z,10.23
2019-04-23T03:37:32.983Z,10.90
2019-04-23T03:39:56.878Z,10.20
2019-04-23T03:47:32.053Z,10.03
2019-04-23T03:55:18.476Z,10.43
2019-04-23T03:58:06.998Z,10.47
2019-04-23T04:03:58.457Z,11.30
2019-04-23T04:05:36.040Z,10.40
2019-04-23T04:08:13.326Z,10.33
2019-04-23T04:10:52.430Z,9.67
2019-04-23T04:13:24.320Z,10.03
2019-04-23T04:15:57.127Z,10.40
2019-04-23T04:26:13.787Z,10.27
2019-04-23T04:28:48.484Z,10.30
2019-04-23T04:31:20.942Z,10.00
2019-04-23T04:36:28.122Z,10.20
2019-04-23T04:38:59.053Z,10.00
2019-04-23T04:41:48.334Z,11.47
2019-04-23T04:44:27.474Z,11.37
2019-04-23T04:46:45.827Z,11.00
2019-04-23T04:49:49.228Z,12.23
2019-04-23T04:57:05.452Z,9.77
2019-04-23T05:07:30.453Z,9.77
2019-04-23T05:10:09.326Z,9.60
2019-04-23T05:12:40.968Z,10.23
2019-04-23T05:15:03.223Z,8.83
2019-04-23T05:20:12.545Z,9.67
2019-04-23T05:22:56.897Z,10.17
2019-04-23T05:25:12.596Z,8.93
2019-04-23T05:28:02.784Z,9.93
2019-04-23T05:30:36.367Z,9.80
2019-04-23T05:33:05.930Z,10.10
2019-04-23T05:36:04.588Z,9.57
2019-04-23T05:38:32.210Z,9.70
2019-04-23T05:43:23.522Z,9.27
2019-04-23T05:45:57.387Z,9.10
2019-04-23T05:48:46.968Z,8.53
2019-04-23T05:53:42.520Z,7.57
2019-04-23T05:56:15.569Z,8.10
2019-04-23T05:58:55.775Z,9.00
2019-04-23T06:01:49.896Z,8.40
2019-04-23T06:07:08.404Z,7.93
2019-04-23T06:14:28.466Z,8.23
2019-04-23T06:17:03.647Z,8.93
2019-04-23T06:19:24.590Z,8.73
2019-04-23T06:22:18.752Z,7.53
2019-04-23T06:24:44.347Z,7.43
2019-04-23T06:27:19.834Z,7.93
2019-04-23T06:30:01.124Z,7.90
2019-04-23T06:32:24.244Z,7.93
2019-04-23T06:34:56.862Z,7.73
2019-04-23T06:37:47.670Z,9.67
2019-04-23T06:40:10.135Z,7.73
2019-04-23T06:42:44.688Z,8.33
2019-04-23T06:45:20.560Z,7.40
2019-04-23T06:48:01.901Z,6.47
2019-04-23T06:50:35.566Z,7.47
2019-04-23T06:53:01.913Z,7.10
2019-04-23T06:55:45.724Z,6.83
2019-04-23T06:58:24.031Z,6.73
2019-04-23T07:00:59.100Z,8.30
2019-04-23T07:03:31.798Z,7.73
2019-04-23T07:06:11.461Z,7.07
2019-04-23T07:09:03.200Z,6.67
2019-04-23T07:11:23.602Z,8.80
2019-04-23T07:13:54.793Z,7.30
2019-04-23T07:16:34.681Z,7.53
2019-04-23T07:19:01.585Z,9.57
2019-04-23T07:21:27.942Z,7.47
2019-04-23T07:24:13.415Z,7.67
2019-04-23T07:26:38.734Z,7.33
2019-04-23T07:29:16.038Z,6.40
2019-04-23T07:31:50.110Z,6.77
2019-04-23T07:34:20.397Z,6.53
2019-04-23T07:36:55.439Z,6.33
2019-04-23T07:39:37.037Z,6.70
2019-04-23T07:42:29.808Z,5.97
2019-04-23T07:48:06.574Z,6.33
2019-04-23T07:50:39.121Z,6.13
2019-04-23T07:53:19.660Z,6.03
2019-04-23T07:55:49.878Z,6.70
2019-04-23T08:00:49.004Z,7.13
2019-04-23T08:03:29.015Z,6.27
2019-04-23T08:06:04.354Z,6.20
2019-04-23T08:08:37.824Z,7.10
2019-04-23T08:11:30.632Z,5.87
2019-04-23T08:13:53.294Z,5.80
2019-04-23T08:18:59.093Z,7.30
2019-04-23T08:21:32.178Z,6.00
2019-04-23T08:24:10.215Z,5.37
2019-04-23T08:26:55.094Z,6.80
2019-04-23T08:29:24.873Z,6.27
2019-04-23T08:32:07.801Z,5.23
2019-04-23T08:34:43.299Z,4.90
2019-04-23T08:39:43.544Z,4.73
2019-04-23T08:42:33.463Z,6.37
2019-04-23T08:45:18.631Z,4.27
2019-04-23T08:47:52.653Z,5.03
2019-04-23T08:50:27.419Z,4.67
2019-04-23T08:53:04.518Z,4.93
2019-04-23T08:55:44.265Z,7.77
2019-04-23T08:58:06.008Z,5.80
2019-04-23T09:00:58.576Z,5.17
2019-04-23T09:03:25.118Z,5.90
2019-04-23T09:08:27.278Z,8.87
2019-04-23T09:11:06.503Z,9.13
2019-04-23T09:16:08.854Z,6.23
2019-04-23T09:19:07.362Z,7.30
2019-04-23T09:23:53.997Z,6.10
2019-04-23T09:26:22.721Z,6.50
2019-04-23T09:28:59.769Z,6.73
2019-04-23T09:34:26.091Z,7.57
2019-04-23T09:37:12.008Z,6.77
2019-04-23T09:39:54.152Z,6.83
2019-04-23T09:42:27.984Z,8.00
2019-04-23T09:44:58.143Z,6.27
2019-04-23T09:47:51.934Z,6.95
2019-04-23T09:50:20.158Z,6.53
2019-04-23T09:53:06.281Z,8.00
2019-04-23T09:55:35.808Z,6.20
2019-04-23T10:03:03.610Z,6.40
2019-04-23T10:05:31.108Z,7.08
2019-04-23T10:08:05.231Z,6.63
2019-04-23T10:10:32.270Z,6.87
2019-04-23T10:13:06.088Z,6.63
2019-04-23T10:15:41.132Z,6.00
2019-04-23T10:18:14.086Z,6.30
2019-04-23T10:20:46.737Z,5.50
2019-04-23T10:23:21.169Z,6.75
2019-04-23T10:25:54.121Z,8.78
2019-04-23T10:28:40.295Z,6.45
2019-04-23T10:31:14.550Z,6.03
2019-04-23T10:33:48.238Z,5.70
2019-04-23T10:36:23.916Z,6.80
2019-04-23T10:39:02.572Z,6.37
2019-04-23T10:41:30.660Z,6.08
2019-04-23T10:44:09.034Z,7.95
2019-04-23T10:47:12.363Z,6.90
2019-04-23T10:49:55.443Z,8.00
2019-04-23T10:57:25.259Z,7.08
2019-04-23T10:59:58.547Z,6.00
2019-04-23T11:07:33.956Z,5.97
2019-04-23T11:10:21.905Z,7.35
2019-04-23T11:12:48.954Z,6.85
2019-04-23T11:15:50.682Z,7.72
2019-04-23T11:18:39.932Z,6.30
2019-04-23T11:20:49.370Z,7.10
2019-04-23T11:23:22.465Z,7.83
2019-04-23T11:25:50.432Z,7.58
2019-04-23T11:31:13.050Z,6.50
2019-04-23T11:33:42.739Z,6.72
2019-04-23T11:39:00.624Z,6.45
2019-04-23T11:41:35.257Z,6.05
2019-04-23T11:43:58.922Z,7.00
2019-04-23T11:50:18.918Z,7.03
2019-04-23T11:52:00.144Z,6.90
2019-04-23T11:54:21.352Z,6.20
2019-04-23T11:57:14.918Z,6.92
2019-04-23T11:59:31.658Z,6.65
2019-04-23T12:02:19.317Z,7.87
2019-04-23T12:04:49.920Z,8.55
2019-04-23T12:07:22.644Z,6.85
2019-04-23T12:10:23.692Z,6.67
2019-04-23T12:12:33.059Z,6.50
2019-04-23T12:17:50.868Z,6.33
2019-04-23T12:20:33.666Z,7.97
2019-04-23T12:23:18.970Z,6.78
2019-04-23T12:28:13.470Z,6.40
2019-04-23T12:30:45.387Z,5.65
2019-04-23T12:33:31.464Z,6.30
2019-04-23T12:35:55.684Z,9.13
2019-04-23T12:38:28.375Z,9.45
2019-04-23T12:41:10.131Z,9.00
2019-04-23T12:43:29.424Z,7.47
2019-04-23T12:46:16.279Z,7.83
2019-04-23T12:49:03.195Z,8.05
2019-04-23T12:51:38.454Z,7.15
2019-04-23T12:53:56.453Z,6.87
2019-04-23T12:56:40.335Z,5.62
2019-04-23T12:59:04.602Z,8.15
2019-04-23T13:01:52.423Z,6.95
2019-04-23T13:04:19.486Z,7.45
2019-04-23T13:06:52.770Z,7.72
2019-04-23T13:09:42.899Z,7.83
2019-04-23T13:12:12.625Z,7.92
2019-04-23T13:14:42.071Z,7.22
2019-04-23T13:17:27.471Z,7.83
2019-04-23T13:20:00.184Z,9.98
2019-04-23T13:22:24.190Z,9.38
2019-04-23T13:24:57.948Z,9.50
2019-04-23T13:27:39.986Z,11.22
2019-04-23T13:32:46.414Z,8.70
2019-04-23T13:35:27.631Z,7.35
2019-04-23T13:38:10.588Z,9.85
2019-04-23T13:40:36.186Z,8.98
2019-04-23T13:43:01.107Z,7.92
2019-04-23T13:45:54.313Z,8.33
2019-04-23T13:48:13.422Z,7.87
2019-04-23T13:55:49.114Z,10.30
2019-04-23T14:03:42.933Z,8.90
2019-04-23T14:06:18.198Z,6.92
2019-04-23T14:21:30.945Z,8.35
2019-04-23T14:26:41.666Z,9.60
2019-04-23T14:29:21.071Z,8.15
2019-04-23T14:31:53.554Z,9.88
2019-04-23T14:34:24.952Z,7.92
2019-04-23T14:39:41.040Z,8.53
2019-04-23T14:42:21.382Z,8.28
2019-04-23T14:44:52.407Z,7.87
2019-04-23T14:47:37.995Z,7.78
2019-04-23T14:50:22.954Z,8.93
2019-04-23T14:52:41.290Z,9.58
2019-04-23T14:58:10.488Z,9.73
2019-04-23T15:00:27.050Z,8.88
2019-04-23T15:02:59.430Z,8.88
2019-04-23T15:05:36.210Z,8.45
2019-04-23T15:08:09.393Z,10.72
2019-04-23T15:13:16.921Z,8.45
2019-04-23T15:15:58.022Z,9.30
2019-04-23T15:18:48.773Z,9.20
2019-04-23T15:24:04.249Z,8.63
2019-04-23T15:29:04.541Z,10.65
2019-04-23T15:31:55.520Z,8.68
2019-04-23T15:34:27.205Z,8.90
2019-04-23T15:37:33.532Z,9.65
2019-04-23T15:44:57.731Z,8.80
2019-04-23T15:47:24.933Z,8.90
2019-04-23T15:50:17.567Z,12.05
2019-04-23T15:52:44.322Z,9.18
2019-04-23T16:00:13.238Z,9.40
2019-04-23T16:02:22.465Z,9.60
2019-04-23T16:04:56.013Z,9.45
2019-04-23T16:07:48.547Z,10.38
2019-04-23T16:10:29.490Z,8.80
2019-04-23T16:13:14.881Z,8.80
2019-04-23T16:15:43.370Z,10.10
2019-04-23T16:18:29.998Z,9.10
2019-04-23T16:21:00.883Z,8.35
2019-04-23T16:23:29.120Z,7.85
2019-04-23T16:26:12.499Z,9.90
2019-04-23T16:29:00.430Z,8.95
2019-04-23T16:31:20.731Z,9.48
2019-04-23T16:34:08.612Z,11.50
2019-04-23T16:36:32.598Z,10.88
2019-04-23T16:39:10.709Z,12.70
2019-04-23T16:41:52.119Z,11.25
2019-04-23T16:44:34.154Z,10.13
2019-04-23T16:46:56.327Z,12.60
2019-04-23T16:49:33.038Z,11.10
2019-04-23T16:52:03.566Z,11.05
2019-04-23T16:54:43.385Z,10.50
2019-04-23T17:00:02.885Z,9.18
2019-04-23T17:02:19.310Z,9.80
2019-04-23T17:04:56.660Z,9.75
2019-04-23T17:07:24.268Z,10.45
2019-04-23T17:10:11.518Z,11.20
2019-04-23T17:12:38.707Z,10.40
2019-04-23T17:17:44.942Z,9.88
2019-04-23T17:20:27.174Z,11.00
2019-04-23T17:23:05.179Z,9.33
2019-04-23T17:25:32.966Z,11.73
2019-04-23T17:28:12.095Z,41.93
2019-04-23T17:30:51.751Z,15.83
2019-04-23T17:41:50.069Z,12.10
2019-04-23T17:46:50.582Z,14.47
2019-04-23T17:49:31.215Z,9.20
2019-04-23T17:52:07.088Z,11.53
2019-04-23T18:00:25.441Z,12.50
2019-04-23T18:02:51.711Z,10.43
2019-04-23T18:05:06.333Z,10.03
2019-04-23T18:07:43.900Z,9.63
2019-04-23T18:15:15.797Z,10.90
2019-04-23T18:17:54.646Z,11.53
2019-04-23T18:20:52.184Z,10.20
2019-04-23T18:23:05.720Z,11.27
2019-04-23T18:25:51.636Z,11.47
2019-04-23T18:28:19.940Z,19.10
2019-04-23T18:31:06.156Z,14.37
2019-04-23T18:36:19.674Z,12.00
2019-04-23T18:41:25.248Z,10.47
2019-04-23T18:44:16.310Z,9.80
2019-04-23T18:46:43.678Z,10.10
2019-04-23T18:49:29.716Z,10.10
2019-04-23T18:51:49.730Z,9.07
2019-04-23T18:54:26.242Z,9.77
2019-04-23T18:57:09.042Z,10.28
2019-04-23T19:02:20.479Z,9.23
2019-04-23T19:05:11.274Z,10.13
2019-04-23T19:07:57.117Z,10.20
2019-04-23T19:10:30.743Z,10.30
2019-04-23T19:13:07.708Z,10.33
2019-04-23T19:15:46.137Z,10.40
2019-04-23T19:18:14.772Z,9.93
2019-04-23T19:21:09.305Z,8.93
2019-04-23T19:23:32.673Z,10.10
2019-04-23T19:25:59.170Z,8.67
2019-04-23T19:31:07.383Z,10.87
2019-04-23T19:36:26.208Z,10.43
2019-04-23T19:39:01.045Z,10.80
2019-04-23T19:41:44.638Z,12.77
2019-04-23T19:44:02.599Z,11.23
2019-04-23T19:49:23.538Z,9.47
2019-04-23T19:57:02.053Z,11.03
2019-04-23T20:02:07.250Z,9.37
2019-04-23T20:04:41.832Z,8.87
2019-04-23T20:07:25.516Z,10.20
2019-04-23T20:09:56.480Z,10.93
2019-04-23T20:12:28.332Z,10.53
2019-04-23T20:14:57.638Z,10.75
2019-04-23T20:20:25.377Z,9.17
2019-04-23T20:22:47.287Z,9.67
2019-04-23T20:28:09.605Z,10.00
2019-04-23T20:30:57.714Z,9.67
2019-04-23T20:33:52.565Z,9.17
2019-04-23T20:35:46.915Z,10.23
2019-04-23T20:40:53.608Z,9.77
2019-04-23T20:43:32.418Z,8.53
2019-04-23T20:49:07.788Z,9.33
2019-04-23T20:51:04.359Z,9.57
2019-04-23T20:53:46.969Z,7.70
2019-04-23T20:56:25.409Z,8.90
2019-04-23T20:59:01.389Z,10.50
2019-04-23T21:01:37.061Z,9.90
2019-04-23T21:04:17.957Z,9.77
2019-04-23T21:06:51.836Z,10.20
2019-04-23T21:09:31.174Z,8.73
2019-04-23T21:12:00.753Z,8.60
2019-04-23T21:14:57.292Z,9.13
2019-04-23T21:17:03.889Z,9.87
2019-04-23T21:19:50.503Z,9.40
2019-04-23T21:22:14.038Z,8.93
2019-04-23T21:27:38.692Z,9.50
2019-04-23T21:30:03.378Z,9.40
2019-04-23T21:32:40.994Z,9.10
2019-04-23T21:35:20.309Z,9.80
2019-04-23T21:38:00.415Z,9.07
2019-04-23T21:40:40.216Z,9.63
2019-04-23T21:43:02.819Z,8.57
2019-04-23T21:45:48.777Z,8.90
2019-04-23T21:53:16.717Z,8.80
2019-04-23T21:56:08.640Z,9.17
2019-04-23T21:58:35.055Z,8.93
2019-04-23T22:01:09.497Z,9.27
2019-04-23T22:04:01.795Z,9.40
2019-04-23T22:06:22.478Z,9.63
2019-04-23T22:08:52.896Z,10.13
2019-04-23T22:11:53.724Z,9.77
2019-04-23T22:14:03.793Z,9.90
2019-04-23T22:16:42.925Z,9.20
2019-04-23T22:19:15.038Z,10.20
2019-04-23T22:21:47.234Z,10.00
2019-04-23T22:27:05.533Z,10.47
2019-04-23T22:29:37.940Z,9.80
2019-04-23T22:32:02.374Z,10.77
2019-04-23T22:34:47.123Z,9.63
2019-04-23T22:37:14.827Z,9.90
2019-04-23T22:39:54.224Z,10.57
2019-04-23T22:42:45.138Z,9.57
2019-04-23T22:47:39.463Z,9.90
2019-04-23T22:50:11.217Z,9.37
2019-04-23T22:52:48.703Z,10.10
2019-04-23T22:55:12.806Z,10.23
2019-04-23T23:00:47.007Z,9.43
2019-04-23T23:03:08.039Z,9.87
2019-04-23T23:06:06.315Z,10.50
2019-04-23T23:08:30.911Z,10.50
2019-04-23T23:10:57.251Z,10.37
2019-04-23T23:13:48.048Z,9.67
2019-04-23T23:18:42.612Z,9.23
2019-04-23T23:21:20.639Z,9.90
2019-04-23T23:23:52.824Z,10.27
2019-04-23T23:26:20.331Z,10.00
2019-04-23T23:28:55.108Z,10.10
2019-04-23T23:31:40.010Z,10.00
2019-04-23T23:34:08.122Z,9.97
2019-04-23T23:36:48.126Z,9.67
2019-04-23T23:39:22.690Z,9.17
2019-04-23T23:42:00.375Z,9.17
2019-04-23T23:47:14.735Z,9.10
2019-04-23T23:49:48.520Z,10.23
2019-04-23T23:52:02.806Z,10.23
2019-04-23T23:54:48.676Z,10.03
2019-04-23T23:57:16.634Z,10.03
